createdAt,value
2019-05-18T00:01:34.333Z,72.50
2019-05-18T00:04:05.682Z,70.60
2019-05-18T00:06:36.917Z,70.50
2019-05-18T00:09:09.703Z,70.00
2019-05-18T00:11:40.733Z,67.80
2019-05-18T00:14:12.310Z,68.80
2019-05-18T00:16:43.875Z,66.70
2019-05-18T00:19:15.392Z,67.00
2019-05-18T00:21:46.674Z,64.70
2019-05-18T00:24:18.234Z,65.20
2019-05-18T00:26:49.899Z,64.70
2019-05-18T00:29:21.329Z,61.90
2019-05-18T00:31:53.007Z,63.20
2019-05-18T00:34:23.064Z,60.80
2019-05-18T00:36:54.443Z,58.10
2019-05-18T00:39:25.618Z,61.50
2019-05-18T00:41:57.200Z,59.70
2019-05-18T00:44:27.219Z,58.00
2019-05-18T00:46:58.880Z,56.80
2019-05-18T00:52:01.148Z,58.90
2019-05-18T00:54:31.308Z,57.00
2019-05-18T00:57:02.837Z,54.80
2019-05-18T00:59:32.982Z,57.80
2019-05-18T01:02:03.914Z,53.20
2019-05-18T01:04:35.672Z,55.60
2019-05-18T01:07:07.438Z,54.00
2019-05-18T01:09:39.182Z,53.90
2019-05-18T01:12:11.030Z,52.90
2019-05-18T01:14:42.781Z,54.70
2019-05-18T01:17:14.218Z,53.70
2019-05-18T01:19:44.394Z,54.40
2019-05-18T01:22:15.655Z,49.70
2019-05-18T01:24:47.392Z,51.90
2019-05-18T01:27:19.036Z,51.70
2019-05-18T01:29:50.903Z,50.70
2019-05-18T01:32:22.046Z,49.80
2019-05-18T01:34:53.089Z,48.20
2019-05-18T01:37:24.642Z,50.50
2019-05-18T01:39:56.300Z,50.20
2019-05-18T01:42:27.756Z,50.30
2019-05-18T01:44:59.085Z,50.00
2019-05-18T01:47:30.204Z,50.20
2019-05-18T01:50:01.798Z,50.70
2019-05-18T01:52:33.248Z,50.10
2019-05-18T01:55:04.895Z,48.50
2019-05-18T01:57:36.513Z,47.80
2019-05-18T02:02:39.168Z,46.60
2019-05-18T02:05:09.601Z,46.90
2019-05-18T02:07:41.351Z,44.00
2019-05-18T02:10:13.468Z,46.60
2019-05-18T02:12:45.172Z,45.00
2019-05-18T02:15:16.844Z,46.00
2019-05-18T02:20:19.414Z,45.50
2019-05-18T02:22:50.986Z,45.70
2019-05-18T02:25:22.588Z,44.40
2019-05-18T02:27:54.198Z,42.80
2019-05-18T02:30:25.609Z,42.20
2019-05-18T02:32:56.966Z,42.20
2019-05-18T02:35:28.649Z,41.50
2019-05-18T02:38:01.642Z,42.20
2019-05-18T02:40:42.098Z,41.90
2019-05-18T02:43:12.442Z,43.10
2019-05-18T02:45:44.042Z,40.40
2019-05-18T02:48:15.202Z,43.30
2019-05-18T02:50:45.474Z,44.30
2019-05-18T02:53:16.532Z,41.80
2019-05-18T02:55:48.161Z,45.10
2019-05-18T02:58:19.916Z,44.60
2019-05-18T03:00:51.206Z,45.50
2019-05-18T03:03:22.606Z,43.40
2019-05-18T03:09:21.812Z,42.70
2019-05-18T03:11:53.709Z,42.60
2019-05-18T03:14:25.024Z,43.10
2019-05-18T03:20:25.315Z,40.60
2019-05-18T03:22:56.950Z,41.10
2019-05-18T03:25:28.060Z,40.80
2019-05-18T03:27:58.596Z,42.10
2019-05-18T03:30:30.098Z,38.60
2019-05-18T03:33:01.945Z,41.70
2019-05-18T03:35:33.725Z,40.20
2019-05-18T03:38:04.769Z,40.00
2019-05-18T03:40:36.610Z,40.80
2019-05-18T03:43:07.811Z,41.40
2019-05-18T03:45:39.501Z,42.20
2019-05-18T03:48:10.999Z,43.00
2019-05-18T03:50:42.407Z,43.30
2019-05-18T03:53:17.836Z,43.10
2019-05-18T03:55:47.179Z,44.50
2019-05-18T03:58:18.841Z,45.40
2019-05-18T04:00:49.843Z,46.20
2019-05-18T04:03:21.528Z,47.10
2019-05-18T04:05:53.285Z,47.50
2019-05-18T04:08:24.725Z,47.90
2019-05-18T04:10:56.187Z,46.30
2019-05-18T04:13:27.315Z,47.70
2019-05-18T04:15:58.761Z,47.10
2019-05-18T04:18:30.443Z,47.60
2019-05-18T04:21:04.040Z,48.60
2019-05-18T04:23:35.920Z,48.90
2019-05-18T04:26:07.672Z,48.80
2019-05-18T04:28:39.319Z,49.50
2019-05-18T04:31:11.177Z,48.70
2019-05-18T04:33:42.654Z,48.30
2019-05-18T04:36:13.790Z,47.60
2019-05-18T04:38:45.038Z,47.80
2019-05-18T04:41:15.566Z,47.10
2019-05-18T04:43:47.133Z,45.00
2019-05-18T04:46:22.058Z,46.90
2019-05-18T04:48:56.579Z,48.30
2019-05-18T04:51:28.013Z,47.10
2019-05-18T04:53:59.768Z,47.60
2019-05-18T04:56:31.545Z,48.30
2019-05-18T04:59:03.295Z,45.90
2019-05-18T05:01:34.523Z,47.00
2019-05-18T05:04:06.118Z,47.40
2019-05-18T05:06:37.959Z,49.10
2019-05-18T05:09:10.548Z,50.40
2019-05-18T05:11:42.322Z,50.90
2019-05-18T05:14:14.084Z,51.20
2019-05-18T05:16:45.472Z,49.60
2019-05-18T05:19:15.540Z,49.80
2019-05-18T05:21:47.190Z,47.50
2019-05-18T05:24:18.430Z,49.90
2019-05-18T05:26:49.482Z,50.30
2019-05-18T05:29:21.248Z,50.70
2019-05-18T05:31:52.899Z,47.80
2019-05-18T05:34:24.458Z,48.20
2019-05-18T05:36:55.439Z,50.10
2019-05-18T05:39:27.066Z,49.00
2019-05-18T05:41:58.303Z,49.60
2019-05-18T05:44:29.807Z,49.40
2019-05-18T05:47:01.399Z,50.00
2019-05-18T05:49:33.174Z,50.70
2019-05-18T05:52:05.035Z,49.70
2019-05-18T05:54:36.335Z,49.80
2019-05-18T05:57:07.684Z,50.40
2019-05-18T05:59:37.978Z,50.50
2019-05-18T06:02:09.526Z,48.70
2019-05-18T06:04:41.265Z,49.70
2019-05-18T06:07:13.035Z,50.30
2019-05-18T06:09:44.342Z,50.90
2019-05-18T06:12:14.303Z,50.50
2019-05-18T06:14:45.737Z,49.60
2019-05-18T06:17:16.878Z,50.30
2019-05-18T06:19:48.254Z,50.70
2019-05-18T06:22:18.365Z,51.30
2019-05-18T06:24:50.226Z,48.60
2019-05-18T06:27:21.985Z,49.90
2019-05-18T06:29:53.750Z,50.80
2019-05-18T06:32:25.252Z,50.00
2019-05-18T06:34:56.516Z,50.10
2019-05-18T06:37:28.293Z,49.80
2019-05-18T06:40:00.084Z,50.30
2019-05-18T06:42:31.828Z,50.60
2019-05-18T06:45:03.575Z,50.30
2019-05-18T06:47:35.389Z,50.50
2019-05-18T06:50:12.389Z,50.60
2019-05-18T06:52:42.358Z,51.10
2019-05-18T06:55:14.303Z,49.60
2019-05-18T06:57:46.739Z,50.40
2019-05-18T07:00:19.674Z,48.90
2019-05-18T07:02:51.418Z,48.70
2019-05-18T07:05:22.475Z,49.20
2019-05-18T07:07:54.030Z,47.90
2019-05-18T07:10:25.779Z,48.90
2019-05-18T07:12:57.643Z,50.30
2019-05-18T07:15:29.112Z,50.30
2019-05-18T07:18:00.754Z,51.00
2019-05-18T07:20:32.116Z,50.30
2019-05-18T07:23:02.135Z,48.30
2019-05-18T07:25:33.973Z,46.80
2019-05-18T07:28:05.650Z,49.50
2019-05-18T07:30:37.415Z,50.30
2019-05-18T07:33:08.950Z,49.30
2019-05-18T07:35:40.920Z,49.50
2019-05-18T07:38:12.376Z,49.00
2019-05-18T07:40:43.809Z,48.30
2019-05-18T07:43:15.141Z,50.00
2019-05-18T07:45:45.726Z,50.30
2019-05-18T07:48:16.777Z,49.20
2019-05-18T07:50:47.968Z,50.60
2019-05-18T07:53:19.554Z,49.50
2019-05-18T07:55:51.621Z,48.80
2019-05-18T07:58:23.481Z,49.50
2019-05-18T08:00:55.246Z,49.70
2019-05-18T08:03:26.466Z,50.40
2019-05-18T08:05:58.034Z,49.60
2019-05-18T08:08:29.396Z,48.70
2019-05-18T08:10:59.484Z,46.40
2019-05-18T08:13:30.716Z,47.00
2019-05-18T08:16:01.891Z,49.10
2019-05-18T08:18:33.031Z,49.00
2019-05-18T08:21:04.501Z,48.70
2019-05-18T08:23:34.430Z,49.20
2019-05-18T08:26:05.891Z,48.40
2019-05-18T08:28:36.211Z,48.60
2019-05-18T08:31:07.860Z,48.10
2019-05-18T08:33:39.256Z,48.70
2019-05-18T08:36:09.864Z,49.50
2019-05-18T08:38:41.385Z,47.90
2019-05-18T08:41:13.266Z,49.50
2019-05-18T08:43:44.915Z,48.50
2019-05-18T08:46:16.321Z,49.40
2019-05-18T08:48:46.603Z,49.60
2019-05-18T08:51:18.140Z,48.30
2019-05-18T08:53:49.920Z,49.20
2019-05-18T08:56:21.579Z,50.00
2019-05-18T08:58:52.788Z,50.50
2019-05-18T09:01:24.468Z,50.20
2019-05-18T09:03:56.088Z,50.20
2019-05-18T09:06:27.688Z,49.70
2019-05-18T09:08:59.078Z,50.30
2019-05-18T09:11:29.392Z,50.50
2019-05-18T09:14:01.211Z,48.70
2019-05-18T09:16:33.306Z,50.60
2019-05-18T09:19:04.458Z,50.40
2019-05-18T09:21:35.639Z,50.60
2019-05-18T09:24:07.246Z,50.40
2019-05-18T09:26:38.993Z,50.00
2019-05-18T09:29:10.607Z,50.20
2019-05-18T09:31:42.199Z,49.80
2019-05-18T09:34:13.643Z,50.10
2019-05-18T09:36:43.896Z,50.60
2019-05-18T09:39:15.550Z,48.90
2019-05-18T09:41:46.733Z,50.50
2019-05-18T09:44:18.528Z,51.10
2019-05-18T09:46:50.345Z,51.00
2019-05-18T09:49:22.160Z,51.00
2019-05-18T09:51:54.213Z,51.20
2019-05-18T09:54:25.842Z,51.20
2019-05-18T09:56:57.215Z,51.10
2019-05-18T09:59:28.808Z,51.00
2019-05-18T10:02:00.560Z,51.20
2019-05-18T10:04:32.308Z,51.50
2019-05-18T10:07:03.690Z,51.60
2019-05-18T10:09:39.415Z,51.50
2019-05-18T10:12:07.689Z,51.70
2019-05-18T10:14:37.748Z,51.80
2019-05-18T10:17:09.399Z,50.60
2019-05-18T10:19:40.581Z,50.90
2019-05-18T10:22:12.196Z,51.40
2019-05-18T10:24:42.717Z,51.20
2019-05-18T10:27:14.262Z,50.70
2019-05-18T10:29:46.621Z,51.60
2019-05-18T10:32:17.784Z,51.20
2019-05-18T10:34:49.450Z,51.60
2019-05-18T10:37:21.198Z,51.60
2019-05-18T10:39:52.954Z,51.70
2019-05-18T10:42:24.322Z,52.30
2019-05-18T10:44:56.175Z,52.30
2019-05-18T10:47:27.933Z,52.80
2019-05-18T10:49:59.204Z,52.80
2019-05-18T10:52:30.938Z,52.70
2019-05-18T10:55:01.305Z,52.60
2019-05-18T10:57:32.691Z,51.20
2019-05-18T11:00:04.269Z,52.30
2019-05-18T11:02:36.183Z,52.80
2019-05-18T11:05:09.435Z,53.60
2019-05-18T11:07:41.090Z,54.00
2019-05-18T11:10:13.438Z,54.20
2019-05-18T11:12:45.203Z,54.80
2019-05-18T11:15:15.736Z,55.10
2019-05-18T11:17:47.213Z,55.50
2019-05-18T11:20:19.284Z,55.50
2019-05-18T11:22:51.131Z,55.70
2019-05-18T11:25:21.479Z,55.50
2019-05-18T11:27:53.334Z,55.80
2019-05-18T11:30:23.859Z,56.00
2019-05-18T11:32:55.723Z,56.30
2019-05-18T11:35:26.363Z,56.20
2019-05-18T11:37:57.539Z,56.90
2019-05-18T11:40:31.093Z,56.80
2019-05-18T11:43:04.599Z,57.00
2019-05-18T11:45:36.244Z,57.20
2019-05-18T11:48:07.545Z,58.00
2019-05-18T11:50:39.245Z,58.10
2019-05-18T11:53:10.710Z,58.20
2019-05-18T11:55:42.357Z,58.00
2019-05-18T11:58:13.568Z,58.20
2019-05-18T12:00:45.359Z,58.40
2019-05-18T12:03:15.732Z,58.60
2019-05-18T12:05:47.348Z,59.30
2019-05-18T12:08:18.502Z,59.00
2019-05-18T12:10:50.067Z,59.20
2019-05-18T12:13:22.512Z,59.40
2019-05-18T12:15:54.135Z,59.60
2019-05-18T12:18:25.315Z,59.80
2019-05-18T12:20:56.991Z,59.90
2019-05-18T12:23:28.192Z,60.00
2019-05-18T12:25:59.796Z,60.50
2019-05-18T12:28:31.568Z,61.10
2019-05-18T12:31:03.319Z,61.20
2019-05-18T12:33:35.082Z,61.50
2019-05-18T12:36:07.748Z,61.70
2019-05-18T12:38:39.303Z,62.20
2019-05-18T12:41:11.979Z,62.30
2019-05-18T12:43:43.441Z,62.60
2019-05-18T12:46:14.593Z,62.80
2019-05-18T12:48:45.899Z,63.50
2019-05-18T12:51:17.239Z,65.10
2019-05-18T12:53:49.144Z,64.40
2019-05-18T12:56:19.307Z,64.30
2019-05-18T12:58:50.659Z,64.80
2019-05-18T13:01:22.274Z,63.50
2019-05-18T13:03:54.040Z,63.50
2019-05-18T13:06:25.784Z,63.60
2019-05-18T13:08:57.166Z,63.90
2019-05-18T13:11:28.783Z,63.80
2019-05-18T13:14:00.274Z,64.10
2019-05-18T13:16:31.430Z,63.80
2019-05-18T13:19:03.070Z,63.60
2019-05-18T13:21:34.814Z,63.50
2019-05-18T13:24:06.274Z,63.30
2019-05-18T13:26:37.528Z,63.30
2019-05-18T13:29:08.975Z,63.60
2019-05-18T13:31:40.730Z,64.00
2019-05-18T13:34:12.388Z,64.10
2019-05-18T13:36:44.146Z,64.20
2019-05-18T13:39:15.000Z,64.50
2019-05-18T13:41:46.207Z,64.40
2019-05-18T13:44:17.886Z,64.40
2019-05-18T13:46:49.331Z,64.20
2019-05-18T13:49:21.115Z,64.40
2019-05-18T13:51:52.955Z,64.70
2019-05-18T13:54:24.459Z,64.70
2019-05-18T13:56:56.083Z,64.70
2019-05-18T13:59:27.397Z,64.70
2019-05-18T14:01:58.960Z,64.70
2019-05-18T14:04:30.521Z,64.70
2019-05-18T14:07:01.644Z,64.60
2019-05-18T14:09:33.332Z,64.30
2019-05-18T14:52:14.237Z,66.70
2019-05-18T14:54:45.510Z,66.70
2019-05-18T14:57:17.084Z,67.00
2019-05-18T16:46:29.866Z,70.00
2019-05-18T16:49:00.694Z,70.20
2019-05-18T16:51:32.996Z,69.90
2019-05-18T16:54:04.387Z,70.30
2019-05-18T16:56:36.204Z,70.30
2019-05-18T16:59:07.070Z,71.10
2019-05-18T17:01:37.972Z,71.10
2019-05-18T17:04:08.947Z,70.90
2019-05-18T17:06:40.854Z,71.30
2019-05-18T17:09:12.188Z,71.70
2019-05-18T17:11:43.094Z,72.20
2019-05-18T17:14:14.852Z,72.30
2019-05-18T17:16:46.406Z,71.80
2019-05-18T17:19:18.160Z,71.60
2019-05-18T17:21:49.399Z,72.20
2019-05-18T17:24:20.959Z,72.10
2019-05-18T17:26:53.555Z,72.10
2019-05-18T17:29:25.504Z,71.90
2019-05-18T17:31:57.570Z,72.90
2019-05-18T17:34:29.236Z,72.90
2019-05-18T17:37:00.504Z,72.70
2019-05-18T17:39:32.133Z,72.50
2019-05-18T17:42:05.184Z,71.70
2019-05-18T17:44:36.418Z,71.10
2019-05-18T17:47:08.419Z,70.80
2019-05-18T17:49:39.497Z,70.20
2019-05-18T17:52:11.033Z,69.60
2019-05-18T17:54:42.212Z,68.90
2019-05-18T17:57:13.832Z,68.70
2019-05-18T17:59:45.128Z,68.30
2019-05-18T18:02:16.715Z,68.20
2019-05-18T18:04:48.086Z,67.80
2019-05-18T18:07:19.489Z,67.60
2019-05-18T18:09:50.757Z,67.70
2019-05-18T18:12:22.324Z,68.20
2019-05-18T18:14:53.695Z,68.60
2019-05-18T18:17:25.228Z,68.10
2019-05-18T18:19:56.280Z,68.60
2019-05-18T18:22:27.290Z,68.50
2019-05-18T18:24:58.874Z,68.20
2019-05-18T18:32:04.979Z,68.10
2019-05-18T18:34:36.227Z,68.70
2019-05-18T18:37:07.975Z,68.90
2019-05-18T18:39:38.927Z,68.60
2019-05-18T18:42:09.830Z,68.60
2019-05-18T18:44:40.795Z,68.00
2019-05-18T18:47:13.363Z,67.70
2019-05-18T18:49:44.803Z,67.80
2019-05-18T18:52:16.421Z,67.60
2019-05-18T18:54:48.044Z,67.90
2019-05-18T18:57:19.053Z,67.70
2019-05-18T18:59:50.236Z,67.60
2019-05-18T19:02:21.320Z,67.50
2019-05-18T19:04:52.927Z,67.20
2019-05-18T19:07:23.767Z,67.20
2019-05-18T19:09:55.093Z,67.10
2019-05-18T19:12:26.809Z,67.10
2019-05-18T19:14:57.792Z,67.20
2019-05-18T19:17:28.637Z,67.30
2019-05-18T19:20:00.420Z,67.30
2019-05-18T19:22:31.523Z,67.20
2019-05-18T19:25:02.918Z,67.30
2019-05-18T19:27:34.009Z,67.20
2019-05-18T19:30:09.743Z,67.40
2019-05-18T19:32:38.976Z,67.40
2019-05-18T19:35:11.040Z,67.40
2019-05-18T19:37:40.865Z,67.30
2019-05-18T19:40:12.955Z,67.90
2019-05-18T19:42:43.085Z,67.70
2019-05-18T19:45:15.244Z,67.70
2019-05-18T19:47:46.491Z,67.60
2019-05-18T19:50:18.725Z,67.80
2019-05-18T19:52:50.206Z,68.00
2019-05-18T19:55:21.564Z,67.80
2019-05-18T19:57:53.137Z,68.00
2019-05-18T20:00:24.499Z,67.80
2019-05-18T20:02:56.129Z,68.00
2019-05-18T20:05:27.303Z,68.10
2019-05-18T20:07:59.035Z,68.20
2019-05-18T20:10:30.783Z,68.00
2019-05-18T20:13:03.144Z,68.20
2019-05-18T20:15:34.807Z,68.20
2019-05-18T20:18:06.175Z,68.30
2019-05-18T20:20:37.417Z,68.20
2019-05-18T20:23:08.836Z,68.50
2019-05-18T20:25:40.640Z,68.60
2019-05-18T20:28:22.911Z,68.90
2019-05-18T20:30:46.526Z,68.70
2019-05-18T20:33:18.044Z,68.40
2019-05-18T20:35:49.902Z,68.70
2019-05-18T20:38:21.344Z,69.00
2019-05-18T20:40:52.639Z,69.30
2019-05-18T20:43:24.015Z,70.50
2019-05-18T20:45:55.278Z,69.50
2019-05-18T20:48:27.188Z,69.90
2019-05-18T20:50:58.338Z,71.10
2019-05-18T20:53:29.514Z,70.40
2019-05-18T20:56:01.160Z,70.30
2019-05-18T20:58:39.901Z,70.70
2019-05-18T21:01:05.415Z,70.90
2019-05-18T21:03:37.132Z,71.00
2019-05-18T21:06:08.476Z,70.70
2019-05-18T21:08:39.699Z,70.60
2019-05-18T21:11:11.475Z,70.60
2019-05-18T21:13:43.039Z,70.60
2019-05-18T21:16:14.124Z,70.40
2019-05-18T21:18:45.824Z,71.10
2019-05-18T21:21:17.579Z,71.00
2019-05-18T21:23:48.419Z,71.10
2019-05-18T21:26:20.101Z,70.60
2019-05-18T21:28:56.445Z,70.60
2019-05-18T21:31:23.986Z,71.10
2019-05-18T21:33:55.670Z,71.00
2019-05-18T21:36:27.429Z,70.70
2019-05-18T21:38:58.691Z,70.80
2019-05-18T21:41:30.035Z,71.00
2019-05-18T21:44:01.315Z,71.40
2019-05-18T21:46:32.487Z,71.60
2019-05-18T21:49:03.742Z,71.70
2019-05-18T21:51:35.114Z,71.50
2019-05-18T21:54:06.207Z,72.30
2019-05-18T21:59:11.590Z,71.50
2019-05-18T22:01:41.469Z,72.60
2019-05-18T22:04:12.466Z,72.60
2019-05-18T22:06:44.348Z,72.60
2019-05-18T22:09:15.543Z,71.80
2019-05-18T22:11:47.164Z,71.90
2019-05-18T22:14:19.014Z,71.40
2019-05-18T22:16:50.250Z,71.50
2019-05-18T22:19:21.811Z,72.30
2019-05-18T22:21:53.473Z,72.50
2019-05-18T22:24:25.117Z,72.60
2019-05-18T22:26:56.255Z,74.90
2019-05-18T22:29:28.022Z,74.20
2019-05-18T22:31:59.152Z,74.50
2019-05-18T22:34:30.916Z,73.50
2019-05-18T22:37:02.129Z,74.80
2019-05-18T22:39:33.712Z,74.20
2019-05-18T22:42:05.531Z,74.00
2019-05-18T22:44:37.342Z,73.30
2019-05-18T22:47:08.242Z,72.50
2019-05-18T22:49:39.385Z,72.40
2019-05-18T22:52:11.008Z,72.50
2019-05-18T22:54:42.252Z,72.70
2019-05-18T22:57:13.539Z,72.90
2019-05-18T22:59:44.972Z,75.00
2019-05-18T23:02:16.038Z,74.90
2019-05-18T23:04:47.730Z,74.80
2019-05-18T23:07:19.215Z,74.90
2019-05-18T23:09:50.950Z,75.20
2019-05-18T23:12:22.906Z,75.40
2019-05-18T23:14:54.062Z,74.70
2019-05-18T23:17:25.376Z,74.70
2019-05-18T23:19:57.007Z,73.70
2019-05-18T23:22:28.244Z,73.00
2019-05-18T23:24:59.421Z,72.10
2019-05-18T23:27:31.019Z,71.40
2019-05-18T23:30:02.461Z,70.80
2019-05-18T23:32:34.199Z,70.20
2019-05-18T23:35:06.399Z,69.60
2019-05-18T23:37:37.957Z,68.90
2019-05-18T23:40:10.121Z,68.40
2019-05-18T23:42:41.564Z,67.70
2019-05-18T23:45:12.832Z,67.10
2019-05-18T23:47:44.578Z,65.50
2019-05-18T23:50:17.730Z,65.00
2019-05-18T23:52:49.215Z,64.90
2019-05-18T23:55:20.971Z,64.70
2019-05-18T23:57:52.326Z,63.10
